Hartford, Connecticut
Current Conditions -  °F | °C
As of 10:38 AM on Wednesday 26 Nov 2014 (Local Time) from KHFD Reporting Station
Light Snow Light Snow  
Wind Chill: -2°   Ceiling: 1500
Heat Index:   Visibility: 2mi
Dew Point:   Wind: 5mph
Humidity: 96%   Direction: 360°N
Pressure: 30.15"   Gusts: NA
Location:  41.76°N, 72.67°W
Report Text: KHFD 261538Z 36004KT 2SM -SN BR FEW009 OVC015 01/00 A3015 RMK AO2 RAE27SNB27 P0010 T00060000
Loading
Personal Weather Stations






























Interactive Weather Map New forecast layout! Learn more

10-Day Weather Forecast

Advertisements
Track Severe Weather on mobile